Time;durP1;ratioP1;P1;durP2;ratioP2;P2;SDS_P1;SDS_P2;PMS_P1;PMS_P2;Temp;Humidity;BMP_temperature;BMP_pressure;BME280_temperature;BME280_humidity;BME280_pressure;Samples;Min_cycle;Max_cycle;Signal;HPM_P1;HPM_P2
2024/03/30 00:01:32;;;;;;;14.87;13.37;;;9.80;99.90;;;-141.84;100.00;116556.59;5109538;28;20195;-68
2024/03/30 00:04:00;;;;;;;14.20;12.70;;;9.80;99.90;;;-141.84;100.00;116023.56;5108258;28;20222;-70
2024/03/30 00:06:27;;;;;;;14.50;13.00;;;9.80;99.90;;;-141.84;100.00;115757.06;5108896;28;20267;-68
2024/03/30 00:08:54;;;;;;;14.47;12.97;;;9.80;99.90;;;-141.84;100.00;115757.06;5108641;28;20218;-69
2024/03/30 00:11:21;;;;;;;14.43;12.97;;;9.80;99.90;;;-141.84;100.00;115490.59;5108506;28;20198;-68
2024/03/30 00:13:47;;;;;;;14.57;13.13;;;9.70;99.90;;;-141.84;100.00;115757.06;5108993;28;20222;-68
2024/03/30 00:16:15;;;;;;;14.97;13.40;;;9.70;99.90;;;-141.84;100.00;114424.91;5108851;28;20225;-68
2024/03/30 00:18:43;;;;;;;14.30;12.80;;;9.80;99.90;;;-141.84;100.00;114691.31;5108385;28;20828;-68
2024/03/30 00:21:16;;;;;;;13.90;12.43;;;9.70;99.90;;;-141.84;100.00;114957.72;5108934;28;20251;-69
2024/03/30 00:23:42;;;;;;;13.97;12.47;;;9.70;99.90;;;-141.84;100.00;115224.16;5109417;28;20267;-68
2024/03/30 00:26:10;;;;;;;13.60;12.30;;;9.70;99.90;;;-141.84;100.00;114957.72;5108563;28;20202;-69
2024/03/30 00:28:36;;;;;;;13.60;12.00;;;9.70;99.90;;;-141.84;100.00;114424.91;5109349;28;20251;-68
2024/03/30 00:31:04;;;;;;;12.83;11.63;;;9.70;99.90;;;-141.84;100.00;114424.91;5108660;28;20219;-68
2024/03/30 00:33:31;;;;;;;12.80;11.50;;;9.70;99.90;;;-141.84;100.00;114957.72;5108613;28;20632;-68
2024/03/30 00:35:59;;;;;;;15.27;12.47;;;9.70;99.90;;;-141.84;100.00;115224.16;5108789;28;20215;-68
2024/03/30 00:38:27;;;;;;;14.53;12.00;;;9.60;99.90;;;-141.84;100.00;115757.06;5109013;28;20644;-69
2024/03/30 00:40:54;;;;;;;14.63;11.80;;;9.60;99.90;;;-141.84;100.00;116290.06;5113209;27;20465;-69
2024/03/30 00:43:20;;;;;;;14.00;12.47;;;9.50;99.90;;;-141.84;100.00;117089.69;5108462;27;20213;-69
2024/03/30 00:45:48;;;;;;;13.90;12.27;;;9.60;99.90;;;-141.84;100.00;117356.25;5112480;27;20215;-68
2024/03/30 00:48:14;;;;;;;12.87;11.57;;;9.50;99.90;;;-141.84;100.00;117889.44;5110080;27;20253;-69
2024/03/30 00:50:41;;;;;;;14.10;11.90;;;9.50;99.90;;;-141.84;100.00;117889.44;5112257;27;20514;-68
2024/03/30 00:53:07;;;;;;;13.30;11.90;;;9.50;99.90;;;-141.84;100.00;117889.44;5116350;27;20201;-68
2024/03/30 00:55:36;;;;;;;12.80;11.50;;;9.50;99.90;;;-141.84;100.00;118156.06;5112961;27;20218;-69
2024/03/30 00:58:03;;;;;;;12.77;11.47;;;9.50;99.90;;;-141.84;100.00;118156.06;5112271;27;20226;-68
2024/03/30 01:00:30;;;;;;;12.13;10.83;;;9.50;99.90;;;-141.84;100.00;117622.84;5114716;27;20222;-68
2024/03/30 01:02:57;;;;;;;12.40;11.10;;;9.50;99.90;;;-141.84;100.00;117356.25;5114403;27;20279;-68
2024/03/30 01:05:24;;;;;;;13.17;11.77;;;9.60;99.90;;;-141.84;100.00;117089.69;5114785;27;20230;-69
2024/03/30 01:07:50;;;;;;;11.60;10.50;;;9.60;99.90;;;-141.84;100.00;116290.06;5111018;27;20264;-69
2024/03/30 01:10:20;;;;;;;11.03;9.93;;;9.60;99.90;;;-141.84;100.00;114158.53;5113949;27;20214;-69
2024/03/30 01:12:49;;;;;;;10.47;9.37;;;9.70;99.90;;;-141.84;99.46;109898.81;5111048;28;20223;-69
2024/03/30 01:15:17;;;;;;;9.77;8.87;;;9.70;99.90;;;-141.84;96.70;104846.16;5111289;27;20242;-68
2024/03/30 01:17:44;;;;;;;9.37;8.47;;;9.80;99.90;;;-141.84;93.27;96350.63;5121779;27;20263;-68
2024/03/30 01:20:13;;;;;;;9.57;8.67;;;9.90;99.90;;;-141.84;91.99;92904.41;5119875;27;20226;-69
2024/03/30 01:22:40;;;;;;;11.57;10.00;;;9.90;99.90;;;-141.84;91.21;90785.09;5123899;27;20232;-69
2024/03/30 01:25:09;;;;;;;10.37;9.23;;;10.00;99.90;;;-141.84;88.18;80205.34;5124158;27;20293;-68
2024/03/30 01:27:36;;;;;;;10.20;9.03;;;10.00;99.90;;;-141.84;88.06;78356.72;5117406;27;20217;-67
2024/03/30 01:30:09;;;;;;;10.33;9.27;;;10.10;99.90;;;-141.84;87.37;75717.34;5120300;27;20620;-67
2024/03/30 01:32:36;;;;;;;9.97;8.97;;;10.10;99.90;;;-141.84;87.37;75717.34;5120113;27;20218;-68
2024/03/30 01:35:05;;;;;;;11.53;9.93;;;10.10;99.90;;;-141.84;85.73;69126.50;5121864;27;20214;-68
2024/03/30 01:37:32;;;;;;;10.63;9.23;;;10.10;99.90;;;-141.84;85.34;65966.75;5124152;27;20669;-68
2024/03/30 01:40:00;;;;;;;10.53;9.37;;;10.20;99.90;;;-141.84;86.32;70970.84;5113495;27;20223;-67
2024/03/30 01:42:27;;;;;;;10.23;9.23;;;10.10;99.90;;;-141.84;87.30;75453.50;5107029;27;20222;-68
2024/03/30 01:44:54;;;;;;;10.63;9.53;;;10.10;99.90;;;-141.84;88.45;79941.19;5115666;27;20219;-68
2024/03/30 01:47:26;;;;;;;11.43;8.90;;;10.10;99.90;;;-141.84;88.95;82054.78;5119224;27;20186;-68
2024/03/30 01:49:56;;;;;;;9.80;8.80;;;10.00;99.90;;;-141.84;88.98;82583.34;5107272;27;20277;-69
2024/03/30 01:52:27;;;;;;;10.50;9.50;;;9.90;99.90;;;-141.84;89.54;84433.91;5110329;27;20225;-67
2024/03/30 01:54:55;;;;;;;9.90;8.90;;;9.90;99.90;;;-141.84;90.09;86549.84;5110118;28;20211;-68
2024/03/30 01:57:24;;;;;;;10.23;9.10;;;9.90;99.90;;;-141.84;90.70;88137.56;5111362;27;20230;-68
2024/03/30 01:59:51;;;;;;;9.90;8.77;;;9.90;99.90;;;-141.84;90.27;87343.63;5132252;27;20215;-68
2024/03/30 02:02:21;;;;;;;10.10;9.00;;;9.80;99.90;;;-141.84;89.50;84433.91;5117596;27;20198;-68
2024/03/30 02:04:49;;;;;;;9.67;8.67;;;9.80;99.90;;;-141.84;89.29;83640.72;5115660;27;20187;-67
2024/03/30 02:07:16;;;;;;;9.90;8.87;;;9.80;99.90;;;-141.84;90.31;86814.44;5121544;27;20215;-68
2024/03/30 02:09:43;;;;;;;9.60;8.60;;;9.70;99.90;;;-141.84;90.57;87872.91;5119328;27;20222;-68
2024/03/30 02:12:10;;;;;;;9.50;8.27;;;9.80;99.90;;;-141.84;90.52;87608.25;5121067;27;20254;-68
2024/03/30 02:14:38;;;;;;;9.10;8.30;;;9.80;99.90;;;-141.84;91.26;90255.47;5083502;27;20218;-65
2024/03/30 02:17:04;;;;;;;9.43;8.57;;;9.70;99.90;;;-141.84;92.53;93434.41;5118534;27;20195;-65
2024/03/30 02:19:43;;;;;;;9.90;8.90;;;9.70;99.90;;;-141.84;92.23;93964.47;5119185;27;20190;-65
2024/03/30 02:22:09;;;;;;;10.00;9.00;;;9.60;99.90;;;-141.84;92.17;92904.41;5116867;27;20252;-65
2024/03/30 02:24:38;;;;;;;9.40;8.40;;;9.60;99.90;;;-141.84;93.43;96085.44;5118987;27;20218;-65
2024/03/30 02:27:04;;;;;;;9.63;8.63;;;9.60;99.90;;;-141.84;94.06;97676.88;5123643;27;20214;-65
2024/03/30 02:29:35;;;;;;;10.00;9.00;;;9.60;99.90;;;-141.84;92.19;93169.38;5118999;27;20222;-64
2024/03/30 02:32:03;;;;;;;10.03;8.27;;;9.60;99.90;;;-141.84;91.73;91314.81;5118420;27;20453;-66
2024/03/30 02:34:31;;;;;;;9.43;8.43;;;9.60;99.90;;;-141.84;91.32;90255.47;5125090;27;20198;-65
2024/03/30 02:36:57;;;;;;;9.33;8.43;;;9.60;99.90;;;-141.84;90.30;87343.63;5118487;27;20225;-65
2024/03/30 02:39:24;;;;;;;9.70;8.53;;;9.60;99.90;;;-141.84;90.32;87343.63;5120758;27;20227;-65
2024/03/30 02:41:52;;;;;;;9.50;8.60;;;9.60;99.90;;;-141.84;89.91;85227.25;5116426;27;20278;-65
2024/03/30 02:44:19;;;;;;;9.53;8.50;;;9.60;99.90;;;-141.84;88.86;81790.53;5117957;27;20198;-65
2024/03/30 02:46:47;;;;;;;9.30;8.37;;;9.60;99.90;;;-141.84;88.85;81262.06;5120452;27;20283;-65
2024/03/30 02:49:15;;;;;;;9.83;8.83;;;9.60;99.90;;;-141.84;89.03;82583.34;5117542;27;20222;-65
2024/03/30 02:51:41;;;;;;;9.70;8.40;;;9.50;99.90;;;-141.84;90.64;87079.03;5121234;27;20217;-64
2024/03/30 02:54:09;;;;;;;8.40;7.60;;;9.50;99.90;;;-141.84;91.79;91049.97;5121201;27;20218;-64
2024/03/30 02:56:36;;;;;;;9.20;8.30;;;9.40;99.90;;;-141.84;92.27;92374.47;5117503;27;20226;-64
2024/03/30 02:59:04;;;;;;;8.70;7.80;;;9.40;99.90;;;-141.84;92.96;95024.81;5109340;27;20199;-65
2024/03/30 03:01:30;;;;;;;9.80;8.90;;;9.40;99.90;;;-141.84;92.08;92904.41;5116668;27;20199;-64
2024/03/30 03:03:58;;;;;;;8.70;7.80;;;9.30;99.90;;;-141.84;91.83;91049.97;5122606;27;20709;-64
2024/03/30 03:06:24;;;;;;;8.80;8.00;;;9.30;99.90;;;-141.84;91.64;90785.09;5118442;27;20795;-64
2024/03/30 03:08:51;;;;;;;8.67;7.77;;;9.30;99.90;;;-141.84;90.23;86285.31;5114839;27;20602;-64
2024/03/30 03:11:17;;;;;;;10.17;8.07;;;9.30;99.90;;;-141.84;90.87;88402.22;5109366;27;20561;-65
2024/03/30 03:13:45;;;;;;;8.50;7.63;;;9.30;99.90;;;-141.84;91.87;91579.72;5116649;27;20227;-65
2024/03/30 03:16:12;;;;;;;8.37;7.47;;;9.30;99.90;;;-141.84;90.48;86814.44;5119414;27;20221;-65
2024/03/30 03:18:40;;;;;;;8.53;7.67;;;9.30;99.90;;;-141.84;91.87;90785.09;5120143;27;20217;-64
2024/03/30 03:21:07;;;;;;;8.70;7.90;;;9.30;99.90;;;-141.84;92.42;93434.41;5115598;27;20240;-65
2024/03/30 03:23:34;;;;;;;9.20;8.30;;;9.30;99.90;;;-141.84;89.50;84698.34;5119469;27;20533;-65
2024/03/30 03:26:00;;;;;;;9.23;8.10;;;9.30;99.90;;;-141.84;88.87;81262.06;5118218;27;20191;-65
2024/03/30 03:28:27;;;;;;;8.97;8.13;;;9.30;99.90;;;-141.84;89.98;84698.34;5121811;27;20205;-64
2024/03/30 03:30:53;;;;;;;9.77;7.80;;;9.40;99.90;;;-141.84;89.89;85227.25;5121816;27;20244;-64
2024/03/30 03:33:22;;;;;;;8.80;7.90;;;9.30;99.90;;;-141.84;90.20;86020.75;5120558;27;20222;-64
2024/03/30 03:35:48;;;;;;;9.10;8.03;;;9.30;99.90;;;-141.84;90.31;86814.44;5117996;27;20237;-64
2024/03/30 03:38:16;;;;;;;8.83;7.63;;;9.40;99.90;;;-141.84;88.80;81526.28;5122868;27;20670;-65
2024/03/30 03:40:42;;;;;;;8.60;7.53;;;9.40;99.90;;;-141.84;89.11;82319.06;5120792;27;20190;-65
2024/03/30 03:43:09;;;;;;;8.53;7.63;;;9.40;99.90;;;-141.84;88.15;79677.06;5115875;27;20461;-65
2024/03/30 03:45:36;;;;;;;8.30;7.40;;;9.40;99.90;;;-141.84;87.70;76772.88;5118858;27;20243;-65
2024/03/30 03:48:03;;;;;;;7.60;6.90;;;9.40;99.90;;;-141.84;87.83;77564.72;5117636;27;20210;-65
2024/03/30 03:50:31;;;;;;;7.77;7.00;;;9.40;99.90;;;-141.84;87.65;76508.97;5115062;27;20222;-65
2024/03/30 03:52:58;;;;;;;7.97;7.03;;;9.40;99.90;;;-141.84;87.63;75981.22;5122979;27;20210;-65
2024/03/30 03:55:25;;;;;;;8.27;7.37;;;9.40;99.90;;;-141.84;87.57;77036.81;5117292;27;20263;-65
2024/03/30 03:57:52;;;;;;;8.00;7.13;;;9.40;99.90;;;-141.84;87.74;76772.88;5114979;27;20225;-65
2024/03/30 04:00:18;;;;;;;8.40;7.60;;;9.40;99.90;;;-141.84;86.43;72552.38;5118530;27;20263;-66
2024/03/30 04:02:45;;;;;;;9.33;7.20;;;9.50;99.90;;;-141.84;85.33;66229.97;5117859;27;20218;-65
2024/03/30 04:05:12;;;;;;;7.70;6.90;;;9.50;99.90;;;-141.84;85.75;67546.31;5118025;27;20206;-64
2024/03/30 04:07:40;;;;;;;7.67;6.87;;;9.40;99.90;;;-141.84;86.32;70707.31;5118088;27;20194;-64
2024/03/30 04:10:09;;;;;;;7.60;6.80;;;9.40;99.90;;;-141.84;86.63;71234.38;5118186;27;20217;-64
2024/03/30 04:12:36;;;;;;;7.20;6.50;;;9.40;99.90;;;-141.84;86.79;72816.03;5115537;27;20862;-65
2024/03/30 04:15:03;;;;;;;7.53;6.83;;;9.40;99.90;;;-141.84;87.05;73870.81;5120804;27;20229;-64
2024/03/30 04:17:33;;;;;;;8.47;6.87;;;9.40;99.90;;;-141.84;86.48;72025.13;5123353;27;20658;-65
2024/03/30 04:19:59;;;;;;;8.03;7.23;;;9.40;99.90;;;-141.84;86.16;70707.31;5126787;27;20531;-64
2024/03/30 04:22:27;;;;;;;7.30;6.43;;;9.30;99.90;;;-141.84;85.75;67809.63;5125932;27;20241;-65
2024/03/30 04:24:55;;;;;;;8.47;6.67;;;9.40;99.90;;;-141.84;85.68;67546.31;5121233;27;20222;-65
2024/03/30 04:27:22;;;;;;;7.30;6.60;;;9.30;99.90;;;-141.84;85.44;65966.75;5122886;27;20218;-65
2024/03/30 04:29:49;;;;;;;7.43;6.73;;;9.30;99.90;;;-141.84;85.52;66493.19;5121428;27;20230;-65
2024/03/30 04:32:16;;;;;;;7.43;6.73;;;9.40;99.90;;;-141.84;86.21;69653.38;5121748;27;20203;-65
2024/03/30 04:34:42;;;;;;;7.80;7.00;;;9.30;99.90;;;-141.84;87.42;74925.88;5123306;27;20191;-66
2024/03/30 04:37:09;;;;;;;7.20;6.50;;;9.30;99.90;;;-141.84;88.40;79148.88;5122158;27;20594;-65
2024/03/30 04:39:37;;;;;;;8.73;6.50;;;9.30;99.90;;;-141.84;88.49;79941.19;5119944;27;20218;-66
2024/03/30 04:42:05;;;;;;;7.47;6.67;;;9.20;99.90;;;-141.84;88.47;79941.19;5119273;27;20362;-64
2024/03/30 04:44:32;;;;;;;6.90;6.20;;;9.30;99.90;;;-141.84;88.55;79941.19;5115503;27;20223;-65
2024/03/30 04:46:58;;;;;;;7.43;6.73;;;9.20;99.90;;;-141.84;87.88;77828.72;5117324;27;20201;-66
2024/03/30 04:49:26;;;;;;;6.80;5.97;;;9.30;99.90;;;-141.84;86.84;73079.69;5114820;27;20226;-65
2024/03/30 04:51:52;;;;;;;7.50;6.37;;;9.20;99.90;;;-141.84;86.43;71234.38;5126601;27;20225;-65
2024/03/30 04:54:19;;;;;;;7.83;6.00;;;9.20;99.90;;;-141.84;86.59;71497.94;5118117;27;20329;-63
2024/03/30 04:56:45;;;;;;;7.73;6.53;;;9.20;99.90;;;-141.84;86.05;68336.31;5114942;27;20214;-64
2024/03/30 04:59:14;;;;;;;7.27;6.57;;;9.20;99.90;;;-141.84;86.58;70443.78;5114465;27;20663;-64
2024/03/30 05:01:40;;;;;;;7.07;6.37;;;9.20;99.90;;;-141.84;87.31;74925.88;5120069;27;20198;-65
2024/03/30 05:04:07;;;;;;;7.37;6.67;;;9.20;99.90;;;-141.84;87.77;76772.88;5114860;27;20221;-64
2024/03/30 05:06:34;;;;;;;6.80;6.10;;;9.20;99.90;;;-141.84;88.31;79412.97;5114632;27;20218;-65
2024/03/30 05:09:01;;;;;;;8.07;6.07;;;9.20;99.90;;;-141.84;88.47;79148.88;5107484;27;20226;-65
2024/03/30 05:11:27;;;;;;;8.50;6.40;;;9.20;99.90;;;-141.84;88.69;80733.66;5114775;27;20214;-65
2024/03/30 05:13:55;;;;;;;9.67;6.80;;;9.20;99.90;;;-141.84;89.00;81526.28;5114893;27;20237;-65
2024/03/30 05:16:22;;;;;;;8.57;7.67;;;9.20;99.90;;;-141.84;88.84;81262.06;5108139;27;20279;-65
2024/03/30 05:18:50;;;;;;;7.70;6.90;;;9.20;99.90;;;-141.84;88.33;79677.06;5111936;27;20223;-65
2024/03/30 05:21:16;;;;;;;11.07;7.83;;;9.20;99.90;;;-141.84;87.88;77828.72;5114113;27;20255;-65
2024/03/30 05:23:45;;;;;;;8.90;7.07;;;9.30;99.90;;;-141.84;86.74;72288.75;5111810;27;20238;-65
2024/03/30 05:26:11;;;;;;;9.70;7.20;;;9.30;99.90;;;-141.84;86.37;71234.38;5119970;27;20605;-65
2024/03/30 05:28:39;;;;;;;11.53;7.40;;;9.40;99.90;;;-141.84;85.18;66756.44;5119801;27;20659;-64
2024/03/30 05:31:10;;;;;;;9.67;6.83;;;9.40;99.90;;;-141.84;84.14;59391.97;5113849;27;20218;-65
2024/03/30 05:33:39;;;;;;;13.93;7.27;;;9.50;99.90;;;-141.84;82.93;51778.88;5110620;28;20207;-65
2024/03/30 05:36:05;;;;;;;13.03;6.87;;;9.50;99.90;;;-141.84;81.68;43656.88;5108032;28;20219;-64
2024/03/30 05:38:33;;;;;;;15.93;6.93;;;9.60;99.90;;;-141.84;80.34;32186.09;5113721;27;20638;-65
2024/03/30 05:40:59;;;;;;;10.70;6.13;;;9.70;99.90;;;-141.84;80.02;30691.94;5104692;27;20670;-65
2024/03/30 05:43:26;;;;;;;9.90;6.60;;;9.80;99.90;;;-141.84;77.75;22283.94;5113930;27;20226;-65
2024/03/30 05:45:57;;;;;;;12.23;6.60;;;9.80;99.90;;;-141.84;77.92;22174.13;5107515;28;20231;-65
2024/03/30 05:48:24;;;;;;;11.50;6.90;;;9.90;99.90;;;-141.84;78.32;23311.06;5109063;27;20215;-65
2024/03/30 05:50:52;;;;;;;12.63;6.57;;;10.00;99.90;;;-141.84;77.42;21344.50;5112865;27;20252;-65
2024/03/30 05:53:19;;;;;;;8.80;5.93;;;10.00;99.90;;;-141.84;77.69;22048.03;5117015;27;20601;-65
2024/03/30 05:55:46;;;;;;;9.37;6.20;;;10.10;99.90;;;-141.84;78.34;23530.75;5123725;27;20255;-65
2024/03/30 05:58:15;;;;;;;9.97;5.97;;;10.10;99.90;;;-141.84;79.15;26155.88;5114019;27;20259;-65
2024/03/30 06:00:42;;;;;;;12.57;6.10;;;10.10;99.90;;;-141.84;78.08;23225.63;5113526;27;20238;-66
2024/03/30 06:03:09;;;;;;;12.83;6.47;;;10.10;99.90;;;-141.84;75.22;19425.69;5112783;27;20218;-64
2024/03/30 06:05:35;;;;;;;9.80;5.77;;;10.20;99.90;;;-141.84;72.83;18840.47;5112965;27;20222;-65
2024/03/30 06:08:05;;;;;;;9.63;5.70;;;10.20;99.90;;;-141.84;71.41;18773.41;5107831;27;20581;-69
2024/03/30 06:10:32;;;;;;;9.77;5.73;;;10.30;99.90;;;-141.84;69.82;18694.16;5108070;27;20195;-66
2024/03/30 06:12:59;;;;;;;7.43;5.60;;;10.40;99.90;;;-141.84;69.31;18692.13;5113221;27;20286;-65
2024/03/30 06:15:25;;;;;;;7.73;5.87;;;10.50;99.90;;;-141.84;69.31;18704.31;5104627;27;20238;-66
2024/03/30 06:17:52;;;;;;;10.10;6.07;;;10.60;99.90;;;-141.84;68.47;18692.13;5113550;27;20218;-65
2024/03/30 06:20:19;;;;;;;8.70;5.17;;;10.60;99.90;;;-141.84;69.13;18749.03;5110839;27;20259;-65
2024/03/30 06:22:46;;;;;;;10.77;4.87;;;10.70;99.90;;;-141.84;68.92;18769.34;5104581;27;20211;-65
2024/03/30 06:25:14;;;;;;;12.67;6.00;;;10.70;99.90;;;-141.84;68.86;18767.31;5118260;27;20663;-65
2024/03/30 06:27:41;;;;;;;9.77;5.50;;;10.80;99.90;;;-141.84;68.23;18759.19;5113169;27;20211;-65
2024/03/30 06:30:08;;;;;;;7.37;5.17;;;10.90;99.90;;;-141.84;67.12;18728.72;5112424;27;20373;-65
2024/03/30 06:32:35;;;;;;;9.30;5.03;;;11.00;99.90;;;-141.84;67.26;18787.63;5113201;27;20271;-65
2024/03/30 06:35:02;;;;;;;12.33;5.57;;;11.00;99.90;;;-141.84;66.03;18789.66;5112988;27;20203;-66
2024/03/30 06:37:29;;;;;;;10.17;5.40;;;11.10;99.90;;;-141.84;65.40;18775.44;5105710;27;20226;-65
2024/03/30 06:45:27;;;;;;;7.47;4.73;;;11.30;99.90;;;-141.84;64.25;18761.22;5112683;27;20218;-65
2024/03/30 06:47:54;;;;;;;8.82;5.20;;;11.40;99.90;;;-141.84;64.14;18765.28;5112899;27;20244;-65
2024/03/30 06:50:22;;;;;;;10.93;5.77;;;11.50;99.90;;;-141.84;63.19;18809.97;5109173;28;20203;-65
2024/03/30 06:52:48;;;;;;;11.30;5.00;;;11.60;99.90;;;-141.84;63.47;18812.00;5110728;27;20206;-64
2024/03/30 06:55:17;;;;;;;9.37;5.20;;;11.70;99.90;;;-141.84;63.67;18799.81;5111235;27;20266;-65
2024/03/30 06:57:44;;;;;;;8.10;4.90;;;11.80;99.90;;;-141.84;63.24;18801.84;5112616;27;20786;-65
2024/03/30 07:00:12;;;;;;;12.00;5.32;;;11.90;99.90;;;-141.84;61.85;18836.41;5112354;27;20240;-65
2024/03/30 07:02:38;;;;;;;12.73;5.70;;;12.00;99.90;;;-141.84;61.43;18895.31;5112618;27;20218;-65
2024/03/30 07:05:07;;;;;;;7.90;5.20;;;12.10;99.90;;;-141.84;61.42;18844.53;5111763;27;20206;-65
2024/03/30 07:07:33;;;;;;;12.77;5.68;;;12.20;99.90;;;-141.84;61.64;18824.22;5107602;28;20206;-65
2024/03/30 07:10:00;;;;;;;10.25;5.05;;;12.20;99.90;;;-141.84;60.60;18864.84;5102319;27;20697;-65
2024/03/30 07:12:27;;;;;;;12.68;5.57;;;12.30;99.90;;;-141.84;60.95;18860.78;5106446;28;20223;-65
2024/03/30 07:14:55;;;;;;;12.45;4.93;;;12.30;99.90;;;-141.84;60.82;18858.75;5103747;28;20731;-65
2024/03/30 07:17:22;;;;;;;17.40;6.25;;;12.40;99.90;;;-141.84;59.60;18875.00;5105523;27;20234;-65
2024/03/30 07:19:49;;;;;;;11.20;5.43;;;12.50;99.90;;;-141.84;59.42;18911.56;5104173;27;20210;-65
2024/03/30 07:22:15;;;;;;;10.88;5.65;;;12.50;99.90;;;-141.84;59.09;18901.41;5106206;27;20248;-64
2024/03/30 07:24:43;;;;;;;17.52;5.85;;;12.70;99.90;;;-141.84;58.10;18923.78;5109858;27;20215;-65
2024/03/30 07:27:09;;;;;;;18.60;6.15;;;12.80;99.90;;;-141.84;57.10;18968.47;5103278;27;20279;-65
2024/03/30 07:29:36;;;;;;;26.02;6.30;;;13.00;99.90;;;-141.84;55.84;18976.59;5104260;27;20317;-65
2024/03/30 07:32:04;;;;;;;24.60;6.60;;;13.20;99.90;;;-141.84;54.96;18996.91;5111470;27;20242;-65
2024/03/30 07:34:32;;;;;;;17.33;5.43;;;13.30;99.90;;;-141.84;54.69;19021.31;5112128;27;20202;-65
2024/03/30 07:36:58;;;;;;;20.40;6.85;;;13.40;99.90;;;-141.84;54.22;18996.91;5111496;27;20218;-65
2024/03/30 07:39:25;;;;;;;22.13;6.25;;;13.60;99.90;;;-141.84;53.64;19011.13;5107744;28;20219;-65
2024/03/30 07:41:51;;;;;;;22.25;7.43;;;13.70;99.90;;;-141.84;52.78;19055.84;5105365;28;20219;-65
2024/03/30 07:44:22;;;;;;;39.17;8.30;;;13.80;99.90;;;-141.84;52.09;19090.38;5106877;27;20209;-65
2024/03/30 07:46:48;;;;;;;36.10;8.48;;;14.00;99.90;;;-141.84;51.61;19096.47;5102936;28;20195;-65
2024/03/30 07:49:16;;;;;;;29.10;8.20;;;14.20;99.90;;;-141.84;51.29;19124.94;5103713;28;20618;-65
2024/03/30 07:51:43;;;;;;;35.10;7.63;;;14.40;99.90;;;-141.84;50.62;19157.44;5104746;27;20211;-65
2024/03/30 07:54:10;;;;;;;36.72;8.45;;;14.50;99.90;;;-141.84;49.88;19181.81;5109701;28;20802;-65
2024/03/30 07:56:38;;;;;;;34.03;8.82;;;14.70;99.90;;;-141.84;49.22;19200.13;5107616;28;20257;-65
2024/03/30 07:59:05;;;;;;;31.85;7.85;;;14.90;99.90;;;-141.84;48.50;19206.22;5111747;27;20206;-65
2024/03/30 08:01:33;;;;;;;40.58;9.13;;;15.00;99.90;;;-141.84;48.55;19273.28;5106036;28;20206;-65
2024/03/30 08:04:01;;;;;;;48.10;9.13;;;15.10;99.90;;;-141.84;48.02;19250.91;5104760;28;20222;-65
2024/03/30 08:06:28;;;;;;;39.80;8.85;;;15.20;99.90;;;-141.84;47.15;19305.78;5110942;28;20698;-65
2024/03/30 08:08:55;;;;;;;35.53;9.43;;;15.50;99.90;;;-141.84;46.78;19305.78;5097470;28;20222;-65
2024/03/30 08:11:22;;;;;;;41.85;9.15;;;15.60;99.90;;;-141.84;46.62;19346.44;5113182;28;20631;-65
2024/03/30 08:13:49;;;;;;;40.20;8.45;;;15.80;99.90;;;-141.84;45.91;19385.03;5111614;28;20226;-65
2024/03/30 08:16:16;;;;;;;38.78;9.52;;;16.00;99.90;;;-141.84;45.64;19423.66;5109409;28;20275;-65
2024/03/30 08:18:43;;;;;;;42.88;9.93;;;16.10;99.90;;;-141.84;45.19;19427.72;5108749;28;20282;-65
2024/03/30 08:21:09;;;;;;;57.97;10.85;;;16.30;99.90;;;-141.84;44.50;19488.69;5108776;28;20226;-65
2024/03/30 08:23:38;;;;;;;50.45;10.90;;;16.50;99.90;;;-141.84;43.99;19574.03;5107825;28;20702;-65
2024/03/30 08:26:04;;;;;;;39.55;9.30;;;16.70;99.90;;;-141.84;44.00;19531.34;5110660;28;20744;-66
2024/03/30 08:28:32;;;;;;;50.40;10.65;;;16.70;99.90;;;-141.84;44.04;19537.44;5111317;28;20202;-65
2024/03/30 08:30:58;;;;;;;45.17;10.55;;;16.90;99.90;;;-141.84;43.70;19537.44;5106061;28;20225;-66
2024/03/30 08:33:25;;;;;;;51.63;11.32;;;17.00;99.90;;;-141.84;43.73;19529.31;5107335;28;20578;-66
2024/03/30 08:35:52;;;;;;;47.47;10.05;;;17.00;99.90;;;-141.84;43.33;19580.13;5110204;28;20589;-65
2024/03/30 08:38:20;;;;;;;49.63;10.95;;;17.00;99.90;;;-141.84;43.21;19594.34;5109721;28;20214;-64
2024/03/30 08:40:48;;;;;;;44.95;10.30;;;17.00;99.90;;;-141.84;43.09;19561.84;5107521;28;20203;-64
2024/03/30 08:43:16;;;;;;;44.38;10.80;;;17.10;99.90;;;-141.84;43.01;19612.63;5110426;28;20211;-65
2024/03/30 08:45:43;;;;;;;53.47;15.40;;;17.10;99.90;;;-141.84;43.33;19624.84;5110427;28;20225;-65
2024/03/30 08:48:14;;;;;;;63.25;12.73;;;17.20;99.90;;;-141.84;42.94;19610.59;5110565;28;20225;-65
2024/03/30 08:50:41;;;;;;;67.45;12.38;;;17.20;99.90;;;-141.84;42.79;19614.66;5110440;28;20224;-65
2024/03/30 08:53:09;;;;;;;57.53;11.38;;;17.30;99.90;;;-141.84;42.92;19687.84;5111269;27;20202;-66
2024/03/30 08:55:37;;;;;;;61.10;12.02;;;17.40;99.90;;;-141.84;42.23;19673.59;5110910;28;20195;-65
2024/03/30 08:58:08;;;;;;;62.22;12.82;;;17.60;99.90;;;-141.84;41.13;19734.56;5105873;28;20219;-65
2024/03/30 09:00:34;;;;;;;62.03;12.68;;;17.70;99.90;;;-141.84;40.07;19748.81;5100473;27;20210;-65
2024/03/30 09:03:02;;;;;;;76.65;13.45;;;17.90;99.90;;;-141.84;39.54;19797.59;5114480;27;20222;-65
2024/03/30 09:05:29;;;;;;;58.88;12.63;;;18.00;99.90;;;-141.84;38.80;19884.97;5114429;27;20219;-65
2024/03/30 09:07:57;;;;;;;67.68;14.40;;;18.20;99.90;;;-141.84;38.49;19864.66;5110417;27;20385;-65
2024/03/30 09:10:25;;;;;;;77.57;13.50;;;18.30;99.90;;;-141.84;38.93;19887.00;5110947;28;20253;-65
2024/03/30 09:12:53;;;;;;;79.38;14.48;;;18.40;99.90;;;-141.84;38.46;19893.09;5111370;27;20252;-65
2024/03/30 09:15:20;;;;;;;82.88;14.05;;;18.40;99.90;;;-141.84;37.74;19954.06;5107249;27;20569;-65
2024/03/30 09:17:48;;;;;;;75.95;14.55;;;18.60;99.90;;;-141.84;37.24;19950.00;5114116;27;20230;-65
2024/03/30 09:20:14;;;;;;;85.13;14.10;;;18.70;99.90;;;-141.84;36.55;20023.19;5113840;27;20198;-65
2024/03/30 09:22:43;;;;;;;91.90;13.55;;;18.90;99.90;;;-141.84;36.13;20031.31;5111521;28;20257;-64
2024/03/30 09:25:13;;;;;;;84.85;15.27;;;19.00;99.90;;;-141.84;36.35;20084.16;5115273;27;20356;-65
2024/03/30 09:27:41;;;;;;;74.70;14.63;;;19.20;99.90;;;-141.84;36.34;20108.53;5111428;27;20220;-64
2024/03/30 09:30:10;;;;;;;77.47;13.43;;;19.30;99.90;;;-141.84;36.19;20155.28;5114002;27;20219;-64
2024/03/30 09:32:41;;;;;;;78.10;14.45;;;19.50;99.90;;;-141.84;35.87;20189.84;5114010;27;20779;-64
2024/03/30 09:35:08;;;;;;;68.32;12.38;;;19.50;99.90;;;-141.84;35.85;20159.34;5111796;27;20273;-65
2024/03/30 09:37:36;;;;;;;73.82;12.85;;;19.60;99.90;;;-141.84;35.51;20193.91;5114318;27;20222;-65
2024/03/30 09:40:04;;;;;;;85.97;16.20;;;19.60;99.90;;;-141.84;35.51;20232.53;5112783;27;20705;-65
2024/03/30 09:42:33;;;;;;;82.35;13.85;;;19.80;99.90;;;-141.84;35.02;20248.78;5113368;27;20599;-65
2024/03/30 09:45:00;;;;;;;66.43;12.82;;;19.90;99.90;;;-141.84;34.90;20252.84;5110095;28;20715;-64
2024/03/30 09:47:30;;;;;;;64.07;13.18;;;20.00;99.90;;;-141.84;35.08;20319.94;5110195;28;20927;-64
2024/03/30 09:50:02;;;;;;;80.05;14.15;;;20.20;99.90;;;-141.84;34.64;20387.00;5105497;27;20310;-65
2024/03/30 09:52:30;;;;;;;78.22;14.50;;;20.40;99.90;;;-141.84;34.44;20378.88;5113852;27;20481;-64
2024/03/30 09:55:00;;;;;;;87.68;15.38;;;20.40;99.90;;;-141.84;34.27;20423.59;5110807;27;20215;-65
2024/03/30 09:57:30;;;;;;;96.63;15.07;;;20.50;99.90;;;-141.84;33.42;20492.72;5113431;27;20722;-65
2024/03/30 09:59:56;;;;;;;82.85;13.90;;;20.50;99.90;;;-141.84;33.61;20456.13;5113192;27;20223;-65
2024/03/30 10:02:23;;;;;;;76.18;14.45;;;20.50;99.90;;;-141.84;33.48;20484.56;5113225;27;20218;-65
2024/03/30 10:04:50;;;;;;;85.65;14.60;;;20.50;99.90;;;-141.84;33.91;20450.03;5110483;28;20476;-65
2024/03/30 10:07:28;;;;;;;79.38;13.90;;;20.50;99.90;;;-141.84;33.69;20439.84;5112117;27;20238;-65
2024/03/30 10:10:03;;;;;;;71.95;13.38;;;20.50;99.90;;;-141.84;33.21;20464.25;5110297;27;20222;-66